CheckWX is a tool to help pilots better visualize weather data.  It is not intended as a substitute for an official pre-flight weather briefing.

21:36:58 UTC

EGMC METAR
Southend Airport
Southend, United Kingdom
Current

47 mins ago

EGMC 242050Z 26007KT CAVOK 09/M00 Q1028
Observed
Mar-24 @ 20:50 UTC
Wind
  • 260° at 7 KTS
Visibility
10,000+ meters
Flight Rules
VFR
Cloud Levels
  • Clear skies
Temperature
C / 48°F
Dewpoint
C / 32°F
Humidity
54%
Altimeter
30.35" Hg
Pressure
1027.92 hPa
Previous

1 hour ago

EGMC 242020Z 27005KT CAVOK 08/00 Q1028
Observed
Mar-24 @ 20:20 UTC
Wind
  • 270° at 5 KTS
Visibility
10,000+ meters
Flight Rules
VFR
Cloud Levels
  • Clear skies
Temperature
C / 46°F
Dewpoint
C / 32°F
Humidity
57%
Altimeter
30.35" Hg
Pressure
1027.92 hPa
Previous

2 hours ago

EGMC 241950Z 27003KT CAVOK 07/00 Q1028
Observed
Mar-24 @ 19:50 UTC
Wind
  • 270° at 3 KTS
Visibility
10,000+ meters
Flight Rules
VFR
Cloud Levels
  • Clear skies
Temperature
C / 45°F
Dewpoint
C / 32°F
Humidity
61%
Altimeter
30.35" Hg
Pressure
1027.92 hPa